Terminal Aerodrome Forecast
Issued by NWS

Current Version | Previous Version | Text Only | Print | Product List | Glossary On
Versions: 1 2 3 4 5 6 7 8 9 10 11 12 13 14 15 16 17 18 19 20 21
000
FTUS43 KFGF 241900 AAA
TAFTVF
TAF AMD
KTVF 241952Z 2420/2518 33012G20KT P6SM SCT015
     FM242200 31013KT P6SM SCT250
     FM250400 27005KT P6SM OVC100
     FM250800 24005KT P6SM OVC050
     FM251100 23004KT P6SM OVC025
      AMD LTD TO CLD VIS AND WIND=

USA.gov is the U.S. government's official web portal to all federal, state and local government web resources and services.